createdAt,value
2018-11-01T00:01:10.178Z,2.27
2018-11-01T00:06:13.315Z,3.27
2018-11-01T00:11:16.405Z,4.30
2018-11-01T00:16:19.539Z,6.20
2018-11-01T00:21:22.626Z,9.07
2018-11-01T00:26:25.745Z,3.13
2018-11-01T00:31:28.829Z,6.97
2018-11-01T00:36:31.982Z,3.47
2018-11-01T00:41:35.070Z,2.80
2018-11-01T00:46:38.214Z,2.67
2018-11-01T00:51:41.416Z,11.03
2018-11-01T00:56:44.521Z,2.67
2018-11-01T01:01:47.640Z,2.70
2018-11-01T01:06:50.764Z,2.20
2018-11-01T01:11:53.954Z,4.53
2018-11-01T01:16:57.104Z,2.90
2018-11-01T01:22:00.270Z,3.67
2018-11-01T01:27:03.492Z,2.70
2018-11-01T01:32:06.695Z,2.90
2018-11-01T01:37:09.809Z,3.00
2018-11-01T01:42:13.052Z,5.17
2018-11-01T01:47:16.183Z,2.60
2018-11-01T01:52:19.302Z,2.70
2018-11-01T01:57:22.414Z,3.43
2018-11-01T02:02:25.518Z,2.40
2018-11-01T02:07:28.664Z,5.40
2018-11-01T02:12:31.757Z,2.77
2018-11-01T02:17:34.870Z,2.60
2018-11-01T02:22:38.171Z,2.20
2018-11-01T02:27:47.080Z,2.60
2018-11-01T02:32:50.169Z,2.80
2018-11-01T02:37:53.363Z,3.13
2018-11-01T02:42:56.406Z,2.37
2018-11-01T02:47:59.526Z,2.10
2018-11-01T02:53:02.647Z,2.67
2018-11-01T02:58:06.197Z,3.17
2018-11-01T03:03:09.293Z,3.03
2018-11-01T03:08:12.381Z,3.70
2018-11-01T03:13:15.493Z,2.90
2018-11-01T03:18:18.607Z,3.37
2018-11-01T03:23:21.998Z,3.10
2018-11-01T03:28:25.121Z,5.23
2018-11-01T03:33:28.242Z,2.50
2018-11-01T03:38:31.571Z,3.97
2018-11-01T03:43:34.577Z,2.93
2018-11-01T03:48:37.724Z,5.77
2018-11-01T03:53:40.890Z,6.00
2018-11-01T03:58:44.036Z,5.77
2018-11-01T04:03:47.212Z,4.13
2018-11-01T04:08:50.297Z,4.53
2018-11-01T04:13:53.570Z,4.90
2018-11-01T04:18:57.019Z,4.63
2018-11-01T04:24:00.165Z,4.13
2018-11-01T04:29:03.361Z,5.10
2018-11-01T04:34:06.534Z,3.87
2018-11-01T04:39:10.569Z,3.30
2018-11-01T04:44:13.706Z,5.93
2018-11-01T04:49:16.823Z,3.00
2018-11-01T04:54:19.945Z,4.90
2018-11-01T04:59:23.110Z,4.83
2018-11-01T05:04:26.210Z,4.90
2018-11-01T05:09:29.369Z,4.00
2018-11-01T05:14:32.546Z,4.83
2018-11-01T05:19:35.706Z,4.70
2018-11-01T05:24:38.840Z,6.70
2018-11-01T05:29:42.095Z,5.47
2018-11-01T05:34:45.560Z,4.03
2018-11-01T05:39:48.963Z,5.27
2018-11-01T05:44:53.641Z,4.07
2018-11-01T05:49:57.153Z,4.27
2018-11-01T05:55:00.397Z,7.13
2018-11-01T06:00:04.880Z,6.70
2018-11-01T06:05:09.298Z,5.43
2018-11-01T06:10:13.808Z,4.90
2018-11-01T06:15:17.210Z,6.63
2018-11-01T06:20:20.720Z,5.40
2018-11-01T06:25:23.946Z,5.13
2018-11-01T06:30:28.370Z,8.13
2018-11-01T06:36:06.169Z,7.90
2018-11-01T06:41:10.205Z,6.37
2018-11-01T06:46:13.506Z,6.40
2018-11-01T06:51:16.735Z,6.63
2018-11-01T06:56:19.903Z,4.20
2018-11-01T07:01:23.163Z,5.40
2018-11-01T07:06:26.298Z,5.80
2018-11-01T07:11:29.730Z,4.87
2018-11-01T07:16:32.823Z,6.13
2018-11-01T07:21:35.989Z,6.07
2018-11-01T07:26:39.115Z,5.87
2018-11-01T07:31:42.221Z,7.50
2018-11-01T07:36:45.410Z,6.30
2018-11-01T07:41:48.538Z,8.23
2018-11-01T07:46:51.749Z,8.50
2018-11-01T07:51:54.903Z,7.27
2018-11-01T07:56:58.121Z,6.10
2018-11-01T08:02:01.247Z,8.43
2018-11-01T08:07:04.441Z,6.97
2018-11-01T08:12:07.627Z,8.00
2018-11-01T08:17:10.864Z,8.10
2018-11-01T08:22:14.072Z,7.07
2018-11-01T08:35:13.331Z,7.63
2018-11-01T08:40:16.587Z,8.03
2018-11-01T08:45:20.963Z,10.93
2018-11-01T08:50:24.308Z,9.57
2018-11-01T08:55:27.510Z,6.90
2018-11-01T09:00:30.677Z,5.93
2018-11-01T09:05:33.942Z,6.90
2018-11-01T09:10:37.121Z,6.27
2018-11-01T09:15:40.678Z,5.60
2018-11-01T09:20:43.849Z,9.93
2018-11-01T09:25:47.072Z,8.00
2018-11-01T09:30:50.203Z,6.80
2018-11-01T09:35:53.474Z,7.67
2018-11-01T09:40:56.484Z,10.67
2018-11-01T09:45:59.707Z,6.43
2018-11-01T09:51:03.032Z,13.07
2018-11-01T09:56:06.363Z,9.90
2018-11-01T10:01:09.489Z,11.63
2018-11-01T10:06:12.751Z,8.60
2018-11-01T10:11:15.818Z,7.37
2018-11-01T10:16:19.132Z,10.10
2018-11-01T10:21:22.211Z,9.47
2018-11-01T10:26:25.367Z,7.23
2018-11-01T10:31:28.506Z,9.73
2018-11-01T10:36:31.678Z,13.53
2018-11-01T10:41:34.934Z,11.40
2018-11-01T10:46:38.136Z,9.60
2018-11-01T10:51:41.245Z,8.83
2018-11-01T10:56:44.375Z,8.10
2018-11-01T11:01:53.145Z,8.60
2018-11-01T11:06:56.277Z,12.23
2018-11-01T11:11:59.382Z,8.20
2018-11-01T11:17:02.606Z,9.00
2018-11-01T11:22:05.858Z,20.13
2018-11-01T11:27:34.463Z,8.70
2018-11-01T11:32:38.769Z,9.10
2018-11-01T11:37:41.939Z,11.70
2018-11-01T11:42:51.666Z,14.53
2018-11-01T11:47:54.880Z,10.43
2018-11-01T11:52:58.086Z,9.33
2018-11-01T11:58:01.310Z,8.60
2018-11-01T12:03:04.816Z,9.03
2018-11-01T12:08:08.083Z,9.67
2018-11-01T12:13:11.338Z,9.97
2018-11-01T12:18:14.504Z,14.13
2018-11-01T12:23:18.246Z,10.53
2018-11-01T12:28:21.363Z,14.13
2018-11-01T12:33:25.294Z,11.40
2018-11-01T12:38:29.510Z,12.93
2018-11-01T12:43:32.710Z,11.00
2018-11-01T12:48:35.922Z,8.33
2018-11-01T12:53:39.054Z,17.53
2018-11-01T12:58:42.284Z,10.90
2018-11-01T13:03:45.425Z,12.00
2018-11-01T13:08:48.560Z,19.83
2018-11-01T13:13:51.690Z,13.47
2018-11-01T13:18:54.874Z,9.13
2018-11-01T13:23:58.009Z,14.30
2018-11-01T13:29:01.143Z,14.50
2018-11-01T13:34:04.336Z,16.30
2018-11-01T13:39:07.890Z,13.10
2018-11-01T13:44:11.055Z,13.53
2018-11-01T13:49:14.254Z,15.93
2018-11-01T13:54:17.450Z,24.23
2018-11-01T13:59:20.605Z,14.30
2018-11-01T14:04:23.757Z,14.33
2018-11-01T14:09:26.914Z,15.43
2018-11-01T14:14:30.473Z,17.10
2018-11-01T14:19:39.882Z,12.27
2018-11-01T14:24:42.996Z,15.70
2018-11-01T14:29:46.128Z,16.77
2018-11-01T14:34:49.317Z,16.00
2018-11-01T14:39:52.441Z,12.07
2018-11-01T14:44:55.597Z,17.83
2018-11-01T14:49:58.809Z,14.50
2018-11-01T14:55:03.098Z,16.80
2018-11-01T15:00:08.180Z,12.93
2018-11-01T15:05:11.471Z,14.23
2018-11-01T15:10:15.242Z,16.33
2018-11-01T15:15:18.462Z,15.63
2018-11-01T15:20:21.626Z,23.80
2018-11-01T15:25:24.819Z,21.73
2018-11-01T15:30:28.771Z,22.60
2018-11-01T15:35:31.985Z,24.80
2018-11-01T15:40:35.187Z,22.37
2018-11-01T15:45:38.351Z,21.50
2018-11-01T15:50:41.498Z,18.10
2018-11-01T15:55:44.648Z,13.90
2018-11-01T16:00:47.844Z,18.63
2018-11-01T16:05:51.000Z,24.27
2018-11-01T16:10:54.188Z,17.20
2018-11-01T16:16:00.556Z,19.30
2018-11-01T16:21:03.926Z,20.90
2018-11-01T16:26:07.265Z,17.37
2018-11-01T16:31:10.470Z,23.70
2018-11-01T16:36:13.600Z,16.47
2018-11-01T16:41:16.807Z,17.70
2018-11-01T16:46:20.043Z,13.47
2018-11-01T16:51:23.225Z,15.30
2018-11-01T16:56:26.405Z,15.17
2018-11-01T17:01:29.533Z,21.83
2018-11-01T17:06:33.970Z,12.60
2018-11-01T17:11:37.241Z,10.13
2018-11-01T17:16:40.384Z,15.70
2018-11-01T17:21:43.578Z,13.00
2018-11-01T17:26:46.741Z,8.17
2018-11-01T17:31:49.974Z,13.87
2018-11-01T17:36:53.191Z,8.70
2018-11-01T17:41:56.470Z,18.47
2018-11-01T17:46:59.667Z,11.07
2018-11-01T17:52:02.905Z,11.43
2018-11-01T17:57:06.226Z,9.27
2018-11-01T18:02:10.760Z,15.83
2018-11-01T18:07:16.754Z,12.57
2018-11-01T18:12:20.596Z,11.60
2018-11-01T18:17:24.192Z,14.07
2018-11-01T18:22:27.739Z,11.77
2018-11-01T18:27:31.094Z,14.00
2018-11-01T18:32:34.422Z,12.07
2018-11-01T18:37:38.045Z,15.30
2018-11-01T18:42:41.470Z,13.10
2018-11-01T18:47:44.936Z,12.30
2018-11-01T18:52:48.502Z,11.23
2018-11-01T18:57:51.951Z,12.73
2018-11-01T19:02:55.362Z,13.37
2018-11-01T19:07:58.872Z,13.50
2018-11-01T19:13:02.319Z,11.57
2018-11-01T19:18:05.834Z,15.80
2018-11-01T19:23:09.290Z,13.80
2018-11-01T19:28:12.712Z,11.60
2018-11-01T19:33:17.026Z,14.83
2018-11-01T19:38:20.632Z,11.57
2018-11-01T19:43:23.833Z,16.10
2018-11-01T19:48:27.064Z,14.67
2018-11-01T19:53:30.110Z,20.10
2018-11-01T20:14:39.814Z,48.00
2018-11-01T20:19:43.030Z,28.40
2018-11-01T20:24:46.045Z,31.83
2018-11-01T20:29:49.164Z,22.67
2018-11-01T20:34:52.369Z,12.10
2018-11-01T20:39:55.556Z,12.10
2018-11-01T20:44:59.481Z,15.93
2018-11-01T20:50:02.704Z,96.87
2018-11-01T20:55:06.616Z,124.93
2018-11-01T21:00:12.216Z,72.97
2018-11-01T21:05:15.370Z,28.50
2018-11-01T21:10:18.479Z,19.33
2018-11-01T21:15:21.572Z,14.60
2018-11-01T21:20:27.614Z,17.63
2018-11-01T21:25:30.942Z,14.73
2018-11-01T21:30:34.074Z,20.53
2018-11-01T21:35:37.392Z,15.03
2018-11-01T21:40:40.485Z,12.00
2018-11-01T21:45:43.645Z,14.70
2018-11-01T21:50:46.762Z,11.53
2018-11-01T21:55:49.857Z,11.13
2018-11-01T22:00:53.012Z,13.00
2018-11-01T22:05:56.189Z,9.30
2018-11-01T22:10:59.396Z,15.30
2018-11-01T22:16:02.547Z,11.50
2018-11-01T22:21:05.715Z,8.60
2018-11-01T22:26:08.878Z,8.77
2018-11-01T22:31:12.128Z,8.30
2018-11-01T22:36:15.290Z,15.60
2018-11-01T22:41:18.433Z,6.53
2018-11-01T22:46:21.562Z,7.70
2018-11-01T22:51:24.662Z,7.23
2018-11-01T22:56:27.775Z,9.60
2018-11-01T23:01:31.466Z,8.77
2018-11-01T23:06:34.768Z,9.93
2018-11-01T23:11:38.566Z,7.63
2018-11-01T23:16:41.711Z,5.60
2018-11-01T23:21:44.850Z,7.30
2018-11-01T23:26:47.977Z,15.03
2018-11-01T23:31:51.106Z,7.57
2018-11-01T23:36:59.870Z,5.53
2018-11-01T23:42:08.603Z,5.70
2018-11-01T23:47:17.462Z,7.30
2018-11-01T23:52:22.214Z,6.00
2018-11-01T23:57:25.329Z,8.33
